Edneyville, NC (28727)

5:25 PM EDT on August 30, 2015 (GMT -0400)
North Ridge Road | | Change Station
CLOSE
Current Station
Personal Weather Station
Location: Hendersonville, NC
Elevation: 2218 ft
Nearby Weather Stations

Elev 2218 ft 35.38 °N, 82.35 °W | Updated 37 seconds ago

Mostly Cloudy
Mostly Cloudy
72.6 °F
Feels Like 75 °F
N
0.0
Wind Variable Wind from SSE
Gusts 1.0 mph

Today
High -- | Low -- °F
--% Chance of Precip.
Yesterday
High -- | Low -- °F
Precip. -- in
7:00 AM 7:59 PM
Full, 98% visible
Pressure 30.13 in
Visibility 10.0 miles
Clouds Overcast 6000 ft
Heat Index 75 °F
Dew Point 62 °F
Humidity 69%
Rainfall 0.00 in
Snow Depth Not available.
UV 1 out of 12
Pollen 5.20 out of 12
Air Quality Not available.
Flu Activity Not available.
METAR KAVL 302054Z VRB03KT 10SM OVC060 24/14 A3019 RMK AO2 SLP201 T02390139 55007
Pressure 30.13 in
Visibility 10.0 miles
Clouds Overcast 6000 ft
Heat Index 75 °F
Dew Point 62 °F
Humidity 69%
Rainfall 0.00 in
Snow Depth Not available.
UV 1 out of 12
Pollen 5.20 out of 12
Air Quality Not available.
Flu Activity Not available.
METAR KAVL 302054Z VRB03KT 10SM OVC060 24/14 A3019 RMK AO2 SLP201 T02390139 55007

10-Day Weather Forecast

×

Almanac

Astronomy

Aug. 30, 2015 Rise Set
Actual Time
Civil Twilight
Nautical Twilight
Astronomical Twilight
Moon
Length of Visible Light
Length of Day
Tomorrow will be .
, % of the Moon is Illuminated

Today's Extremes

State Highs State Lows

Community

WunderPhotos

Upload Photos

1,851,063 photos uploaded!

WunderBlogs® & News

Nearby

Air Quality

  Air Quality AQ Index Pollutant
Not available.

Snow Depth

Station Depth Elevation

Earthquake Activity

City Distance Mag. Time & Date
Minimum magnitude displayed is 2.5.

Coastal Water Temperatures

Place Temperature

Stations

Nearby Weather Stations

Station Location Temp. Windchill Dew Point Humidity Wind Precip. Elev Updated Type